createdAt,value
2023-02-05T00:01:17.948Z,12.3
2023-02-05T00:06:17.741Z,11.9
2023-02-05T00:11:17.656Z,11.9
2023-02-05T00:16:17.701Z,12.2
2023-02-05T00:21:17.683Z,12.2
2023-02-05T00:26:17.744Z,11.9
2023-02-05T00:31:17.991Z,11.3
2023-02-05T00:36:17.660Z,11.2
2023-02-05T00:41:17.652Z,11
2023-02-05T00:46:17.768Z,10.4
2023-02-05T00:51:17.671Z,9.4
2023-02-05T00:56:17.621Z,9.4
2023-02-05T01:01:18.293Z,9.2
2023-02-05T01:06:17.657Z,9.1
2023-02-05T01:11:17.670Z,8.8
2023-02-05T01:17:26.462Z,8.6
2023-02-05T01:21:18.400Z,8.3
2023-02-05T01:26:17.912Z,8.3
2023-02-05T01:31:17.894Z,8.1
2023-02-05T01:36:18.062Z,7.8
2023-02-05T01:41:17.739Z,7.8
2023-02-05T01:46:17.794Z,7.8
2023-02-05T01:51:17.959Z,7.7
2023-02-05T01:56:17.671Z,7.7
2023-02-05T02:01:18.195Z,7.5
2023-02-05T02:06:18.669Z,7.4
2023-02-05T02:11:17.829Z,7.2
2023-02-05T02:16:17.686Z,7.2
2023-02-05T02:21:17.691Z,7.2
2023-02-05T02:26:17.646Z,7.2
2023-02-05T02:31:19.330Z,6.9
2023-02-05T02:36:17.677Z,6.9
2023-02-05T02:41:17.640Z,7.2
2023-02-05T02:46:17.718Z,7.2
2023-02-05T02:51:17.666Z,7.2
2023-02-05T02:56:18.867Z,7
2023-02-05T03:01:17.823Z,6.9
2023-02-05T03:06:17.643Z,7
2023-02-05T03:11:17.724Z,7
2023-02-05T03:16:17.745Z,6.8
2023-02-05T03:21:17.650Z,6.8
2023-02-05T03:26:17.650Z,6.6
2023-02-05T03:31:17.926Z,6.3
2023-02-05T03:36:17.675Z,6.3
2023-02-05T03:41:17.669Z,6.3
2023-02-05T03:46:17.671Z,6.3
2023-02-05T03:51:18.165Z,7.1
2023-02-05T03:56:17.664Z,7.1
2023-02-05T04:01:18.008Z,7.3
2023-02-05T04:06:17.639Z,7.5
2023-02-05T04:11:17.641Z,7.5
2023-02-05T04:16:17.674Z,7.4
2023-02-05T04:21:17.627Z,7.4
2023-02-05T04:26:18.078Z,7.3
2023-02-05T04:31:17.661Z,7.3
2023-02-05T04:36:17.707Z,6.6
2023-02-05T04:41:17.635Z,6.6
2023-02-05T04:46:17.781Z,6.6
2023-02-05T04:51:17.643Z,7.2
2023-02-05T04:56:17.650Z,7.3
2023-02-05T05:01:24.977Z,7.3
2023-02-05T05:06:18.198Z,7.7
2023-02-05T05:11:17.638Z,7.7
2023-02-05T05:16:17.668Z,7.7
2023-02-05T05:21:17.660Z,7.3
2023-02-05T05:26:17.640Z,7.3
2023-02-05T05:31:17.701Z,7.3
2023-02-05T05:36:17.736Z,7.2
2023-02-05T05:41:18.777Z,6.7
2023-02-05T05:46:17.692Z,7.2
2023-02-05T05:51:17.721Z,7.2
2023-02-05T05:56:17.704Z,7.2
2023-02-05T06:01:17.757Z,7.1
2023-02-05T06:06:17.667Z,7.1
2023-02-05T06:11:17.708Z,6.9
2023-02-05T06:16:17.867Z,7.1
2023-02-05T06:21:17.715Z,7
2023-02-05T06:26:17.759Z,7
2023-02-05T06:31:17.821Z,7
2023-02-05T06:36:17.683Z,7.1
2023-02-05T06:41:17.742Z,7.2
2023-02-05T06:46:17.712Z,7.8
2023-02-05T06:51:17.751Z,7.2
2023-02-05T06:56:17.737Z,7.8
2023-02-05T07:01:20.438Z,7.8
2023-02-05T07:06:17.670Z,8.2
2023-02-05T07:11:17.688Z,8.2
2023-02-05T07:16:17.732Z,8.1
2023-02-05T07:21:17.679Z,8.1
2023-02-05T07:26:17.720Z,8.2
2023-02-05T07:31:17.825Z,8.2
2023-02-05T07:36:17.670Z,8.2
2023-02-05T07:41:17.679Z,9.2
2023-02-05T07:46:17.694Z,10.8
2023-02-05T07:51:17.700Z,10.8
2023-02-05T07:56:17.669Z,10.8
2023-02-05T08:01:23.357Z,10
2023-02-05T08:06:17.783Z,10
2023-02-05T08:11:17.647Z,8.6
2023-02-05T08:16:17.663Z,8
2023-02-05T08:21:17.643Z,7.8
2023-02-05T08:26:17.670Z,7.5
2023-02-05T08:31:17.657Z,7.3
2023-02-05T08:36:17.683Z,7.3
2023-02-05T08:41:18.665Z,7.3
2023-02-05T08:46:17.743Z,7.1
2023-02-05T08:51:17.719Z,7.1
2023-02-05T08:56:20.775Z,7.1
2023-02-05T09:01:22.656Z,6
2023-02-05T09:06:17.705Z,5.8
2023-02-05T09:11:17.723Z,5.4
2023-02-05T09:16:17.697Z,5.4
2023-02-05T09:21:17.657Z,5.1
2023-02-05T09:26:17.684Z,5.4
2023-02-05T09:31:17.823Z,5.4
2023-02-05T09:36:17.739Z,5.1
2023-02-05T09:41:17.693Z,5.1
2023-02-05T09:46:17.731Z,5.1
2023-02-05T09:51:17.692Z,5.1
2023-02-05T09:56:17.731Z,5.2
2023-02-05T10:01:19.398Z,5.2
2023-02-05T10:06:17.763Z,7.6
2023-02-05T10:11:17.655Z,7.6
2023-02-05T10:16:17.800Z,7.8
2023-02-05T10:21:17.743Z,7.8
2023-02-05T10:26:17.684Z,7.6
2023-02-05T10:31:17.765Z,6.8
2023-02-05T10:36:17.712Z,6.7
2023-02-05T10:41:17.701Z,5.8
2023-02-05T10:46:17.811Z,5.8
2023-02-05T10:51:17.753Z,5.8
2023-02-05T10:56:17.697Z,5.8
2023-02-05T11:01:17.984Z,6.7
2023-02-05T11:06:17.716Z,5.8
2023-02-05T11:11:17.747Z,5.8
2023-02-05T11:16:17.701Z,5.8
2023-02-05T11:21:17.728Z,5.6
2023-02-05T11:26:17.846Z,3.8
2023-02-05T11:31:17.739Z,3.8
2023-02-05T11:36:17.684Z,3.8
2023-02-05T11:41:17.674Z,3.8
2023-02-05T11:46:17.706Z,4.3
2023-02-05T11:51:17.739Z,4.7
2023-02-05T11:56:17.771Z,4.7
2023-02-05T12:01:21.066Z,4.9
2023-02-05T12:06:17.713Z,4.7
2023-02-05T12:11:17.708Z,5.2
2023-02-05T12:16:17.860Z,6.5
2023-02-05T12:21:17.761Z,20
2023-02-05T12:26:17.724Z,6.5
2023-02-05T12:31:17.735Z,6.5
2023-02-05T12:36:17.701Z,5.3
2023-02-05T12:41:17.782Z,5.3
2023-02-05T12:46:17.740Z,4.5
2023-02-05T12:51:17.710Z,4.1
2023-02-05T12:56:17.717Z,3.8
2023-02-05T13:01:17.984Z,3.8
2023-02-05T13:06:17.718Z,4
2023-02-05T13:11:17.706Z,4
2023-02-05T13:16:17.730Z,3.4
2023-02-05T13:21:17.725Z,3.7
2023-02-05T13:36:17.760Z,59.7
2023-02-05T13:41:17.674Z,33.65
2023-02-05T13:46:17.743Z,9.8
2023-02-05T13:51:17.816Z,8.7
2023-02-05T13:56:17.719Z,7.6
2023-02-05T14:01:17.806Z,6.65
2023-02-05T14:06:17.708Z,5.7
2023-02-05T14:11:17.710Z,4.9
2023-02-05T14:16:17.692Z,4.9
2023-02-05T14:21:17.707Z,4.9
2023-02-05T14:26:17.716Z,4.9
2023-02-05T14:31:38.351Z,5
2023-02-05T14:36:17.815Z,5
2023-02-05T14:41:17.730Z,5
2023-02-05T14:46:17.776Z,5
2023-02-05T14:51:17.705Z,4.3
2023-02-05T14:56:17.720Z,4.1
2023-02-05T15:01:17.690Z,3.9
2023-02-05T15:06:17.687Z,3.9
2023-02-05T15:11:18.059Z,3.9
2023-02-05T15:16:17.965Z,3.9
2023-02-05T15:21:17.888Z,4.9
2023-02-05T15:26:17.715Z,4.9
2023-02-05T15:31:36.309Z,4.9
2023-02-05T15:36:17.742Z,4.9
2023-02-05T15:41:17.724Z,5.1
2023-02-05T15:46:17.775Z,5.5
2023-02-05T15:51:18.222Z,5.5
2023-02-05T15:56:17.735Z,5.5
2023-02-05T16:01:17.730Z,5.5
2023-02-05T16:06:17.718Z,5.5
2023-02-05T16:11:17.738Z,5.5
2023-02-05T16:16:17.768Z,5.5
2023-02-05T16:21:17.752Z,5.7
2023-02-05T16:26:17.706Z,5.7
2023-02-05T16:31:40.133Z,5.8
2023-02-05T16:36:17.793Z,7.7
2023-02-05T16:41:17.734Z,7.7
2023-02-05T16:46:17.739Z,7.7
2023-02-05T16:51:17.706Z,7.7
2023-02-05T16:56:17.716Z,4.4
2023-02-05T17:01:17.738Z,4.4
2023-02-05T17:06:17.790Z,4.4
2023-02-05T17:11:17.796Z,4.4
2023-02-05T17:16:17.782Z,4.4
2023-02-05T17:21:17.707Z,5.3
2023-02-05T17:26:17.734Z,7.9
2023-02-05T17:31:32.950Z,8.3
2023-02-05T17:36:17.772Z,9.2
2023-02-05T17:41:17.731Z,11.3
2023-02-05T17:46:17.783Z,11.3
2023-02-05T17:51:17.740Z,11.3
2023-02-05T17:56:17.733Z,11.3
2023-02-05T18:01:17.832Z,11.4
2023-02-05T18:06:17.738Z,13.5
2023-02-05T18:11:17.693Z,13.5
2023-02-05T18:16:17.735Z,13.2
2023-02-05T18:21:17.731Z,13.2
2023-02-05T18:26:17.853Z,13.2
2023-02-05T18:31:28.416Z,13.1
2023-02-05T18:36:17.749Z,10.2
2023-02-05T18:41:17.793Z,10
2023-02-05T18:46:17.792Z,8.9
2023-02-05T18:51:17.735Z,5.7
2023-02-05T18:56:17.697Z,5.7
2023-02-05T19:01:17.786Z,5.5
2023-02-05T19:06:17.754Z,5.1
2023-02-05T19:11:17.726Z,5.2
2023-02-05T19:16:17.756Z,5.1
2023-02-05T19:21:17.700Z,4.9
2023-02-05T19:26:17.720Z,4.9
2023-02-05T19:31:35.117Z,4.9
2023-02-05T19:36:17.772Z,4.9
2023-02-05T19:41:17.734Z,4.9
2023-02-05T19:46:17.836Z,4.9
2023-02-05T19:51:17.752Z,4.9
2023-02-05T19:56:17.790Z,5
2023-02-05T20:01:17.801Z,5.1
2023-02-05T20:06:17.761Z,5.1
2023-02-05T20:11:17.745Z,6.5
2023-02-05T20:16:17.829Z,15.4
2023-02-05T20:21:17.734Z,19.8
2023-02-05T20:26:17.732Z,37.3
2023-02-05T20:31:31.392Z,37.3
2023-02-05T20:36:17.725Z,37.3
2023-02-05T20:41:17.748Z,37.3
2023-02-05T20:46:17.785Z,20.1
2023-02-05T20:51:17.770Z,13.7
2023-02-05T20:56:17.737Z,13.4
2023-02-05T21:01:17.708Z,11.6
2023-02-05T21:06:17.797Z,11.6
2023-02-05T21:11:17.827Z,11.6
2023-02-05T21:16:18.013Z,11.6
2023-02-05T21:21:17.748Z,12.3
2023-02-05T21:26:17.774Z,14.7
2023-02-05T21:31:21.587Z,19
2023-02-05T21:36:17.838Z,19
2023-02-05T21:41:17.740Z,19
2023-02-05T21:46:17.779Z,13.7
2023-02-05T21:51:17.761Z,13.7
2023-02-05T21:56:17.771Z,13.7
2023-02-05T22:01:17.827Z,13.7
2023-02-05T22:06:17.748Z,13.7
2023-02-05T22:11:17.764Z,14
2023-02-05T22:16:17.768Z,14
2023-02-05T22:21:17.847Z,14
2023-02-05T22:26:17.761Z,14
2023-02-05T22:31:29.452Z,14
2023-02-05T22:36:17.821Z,14
2023-02-05T22:41:17.767Z,14.3
2023-02-05T22:46:17.735Z,13.9
2023-02-05T22:51:17.772Z,14.3
2023-02-05T22:56:17.751Z,14.7
2023-02-05T23:01:17.862Z,14.9
2023-02-05T23:06:17.775Z,14.9
2023-02-05T23:11:17.782Z,15.5
2023-02-05T23:16:17.743Z,15.5
2023-02-05T23:21:17.810Z,15.5
2023-02-05T23:26:17.775Z,15
2023-02-05T23:31:32.301Z,14.9
2023-02-05T23:36:17.826Z,13.8
2023-02-05T23:41:17.708Z,13.7
2023-02-05T23:46:17.775Z,11.7
2023-02-05T23:51:17.776Z,11
2023-02-05T23:56:17.764Z,10.8
